Time,TemperatureF,DewpointF,PressureIn,WindDirection,WindDirectionDegrees,WindSpeedMPH,WindSpeedGustMPH,Humidity,HourlyPrecipIn,Conditions,Clouds,dailyrainin,SoftwareType,DateUTC
2013-05-07 00:02:00,64.4,64.0,29.18,NE,45,0.0,2.0,99,0.01,,,0.30,meteohub,2013-05-07 10:02:00,
2013-05-07 00:07:00,64.2,63.9,29.19,NE,45,2.0,2.0,99,0.01,,,0.00,meteohub,2013-05-07 10:07:00,
2013-05-07 00:12:00,64.2,63.9,29.18,NE,45,2.0,2.0,99,0.01,,,0.00,meteohub,2013-05-07 10:12:00,
2013-05-07 00:17:00,64.2,63.9,29.18,NE,45,2.0,2.0,99,0.01,,,0.00,meteohub,2013-05-07 10:17:00,
2013-05-07 00:22:00,64.0,63.7,29.18,NE,45,2.0,3.0,99,0.01,,,0.00,meteohub,2013-05-07 10:22:00,
2013-05-07 00:27:00,64.0,63.7,29.18,NE,45,2.0,3.0,99,0.01,,,0.00,meteohub,2013-05-07 10:27:00,
2013-05-07 00:32:00,64.0,63.7,29.18,NE,45,2.0,2.0,99,0.00,,,0.00,meteohub,2013-05-07 10:32:00,
2013-05-07 00:37:00,64.0,63.7,29.18,NE,45,0.0,2.0,99,0.00,,,0.00,meteohub,2013-05-07 10:37:00,
2013-05-07 00:42:00,64.0,63.7,29.18,East,90,2.0,2.0,99,0.00,,,0.00,meteohub,2013-05-07 10:42:00,
2013-05-07 00:47:00,64.0,63.7,29.18,NE,45,1.0,2.0,99,0.00,,,0.00,meteohub,2013-05-07 10:47:00,
2013-05-07 00:52:00,64.0,63.7,29.18,NE,45,0.0,2.0,99,0.00,,,0.00,meteohub,2013-05-07 10:52:00,
2013-05-07 00:57:00,64.0,63.7,29.17,NE,45,0.0,2.0,99,0.00,,,0.00,meteohub,2013-05-07 10:57:00,
2013-05-07 01:02:00,64.2,63.9,29.17,NE,45,1.0,2.0,99,0.00,,,0.00,meteohub,2013-05-07 11:02:00,
2013-05-07 01:07:00,64.2,63.9,29.17,NE,45,1.0,2.0,99,0.00,,,0.00,meteohub,2013-05-07 11:07:00,
2013-05-07 01:12:00,64.2,63.9,29.16,NE,45,0.0,2.0,99,0.00,,,0.00,meteohub,2013-05-07 11:12:00,
2013-05-07 01:17:00,64.2,63.9,29.16,NE,45,0.0,2.0,99,0.00,,,0.00,meteohub,2013-05-07 11:17:00,
2013-05-07 01:22:00,64.0,63.7,29.16,NE,45,0.0,1.0,99,0.00,,,0.00,meteohub,2013-05-07 11:22:00,
2013-05-07 01:27:00,64.0,63.7,29.16,NE,45,0.0,2.0,99,0.00,,,0.00,meteohub,2013-05-07 11:27:00,
2013-05-07 01:32:00,64.0,63.7,29.16,NE,45,0.0,2.0,99,0.00,,,0.00,meteohub,2013-05-07 11:32:00,
2013-05-07 01:37:00,64.0,63.7,29.16,NE,45,1.0,2.0,99,0.00,,,0.00,meteohub,2013-05-07 11:37:00,
2013-05-07 01:42:00,64.0,63.7,29.16,NE,45,0.0,3.0,99,0.00,,,0.00,meteohub,2013-05-07 11:42:00,
2013-05-07 01:47:00,63.9,63.5,29.15,NE,45,0.0,3.0,99,0.00,,,0.00,meteohub,2013-05-07 11:47:00,
2013-05-07 01:52:00,63.9,63.5,29.15,NE,45,1.0,2.0,99,0.00,,,0.00,meteohub,2013-05-07 11:52:00,
2013-05-07 01:57:00,63.9,63.5,29.15,NE,45,0.0,2.0,99,0.00,,,0.00,meteohub,2013-05-07 11:57:00,
2013-05-07 02:02:00,63.9,63.5,29.15,NE,45,0.0,2.0,99,0.00,,,0.00,meteohub,2013-05-07 12:02:00,
2013-05-07 02:07:00,63.9,63.5,29.15,NE,45,0.0,2.0,99,0.00,,,0.00,meteohub,2013-05-07 12:07:00,
2013-05-07 02:12:00,63.7,63.3,29.14,NE,45,2.0,2.0,99,0.00,,,0.00,meteohub,2013-05-07 12:12:00,
2013-05-07 02:17:00,63.7,63.3,29.14,NE,45,2.0,2.0,99,0.00,,,0.00,meteohub,2013-05-07 12:17:00,
2013-05-07 02:22:00,63.7,63.3,29.14,NE,45,1.0,2.0,99,0.00,,,0.00,meteohub,2013-05-07 12:22:00,
2013-05-07 02:27:00,63.5,63.1,29.14,NE,45,0.0,2.0,99,0.00,,,0.00,meteohub,2013-05-07 12:27:00,
2013-05-07 02:32:00,63.5,63.1,29.14,NE,45,1.0,2.0,99,0.00,,,0.00,meteohub,2013-05-07 12:32:00,
2013-05-07 02:37:00,63.3,63.0,29.14,NE,45,1.0,2.0,99,0.00,,,0.00,meteohub,2013-05-07 12:37:00,
2013-05-07 02:42:00,63.3,63.0,29.13,NE,45,2.0,2.0,99,0.00,,,0.00,meteohub,2013-05-07 12:42:00,
2013-05-07 02:47:00,63.3,63.0,29.14,NE,45,2.0,2.0,99,0.00,,,0.00,meteohub,2013-05-07 12:47:00,
2013-05-07 02:52:00,63.5,63.1,29.14,NE,45,2.0,3.0,99,0.00,,,0.00,meteohub,2013-05-07 12:52:00,
2013-05-07 02:57:00,63.5,63.1,29.14,NE,45,2.0,3.0,99,0.00,,,0.00,meteohub,2013-05-07 12:57:00,
2013-05-07 03:02:00,63.5,63.1,29.14,NE,45,2.0,3.0,99,0.00,,,0.00,meteohub,2013-05-07 13:02:00,
2013-05-07 03:07:00,63.5,63.1,29.14,NE,45,2.0,2.0,99,0.00,,,0.00,meteohub,2013-05-07 13:07:00,
2013-05-07 03:12:00,63.5,63.1,29.14,NE,45,1.0,2.0,99,0.00,,,0.00,meteohub,2013-05-07 13:12:00,
2013-05-07 03:17:00,63.5,63.1,29.14,NE,45,2.0,2.0,99,0.00,,,0.00,meteohub,2013-05-07 13:17:00,
2013-05-07 03:22:00,63.7,63.3,29.14,NE,45,2.0,2.0,99,0.00,,,0.00,meteohub,2013-05-07 13:22:00,
2013-05-07 03:27:00,63.5,63.1,29.14,NE,45,2.0,3.0,99,0.00,,,0.00,meteohub,2013-05-07 13:27:00,
2013-05-07 03:32:00,63.5,63.1,29.14,NE,45,2.0,3.0,99,0.00,,,0.00,meteohub,2013-05-07 13:32:00,
2013-05-07 03:37:00,63.5,63.1,29.14,NE,45,1.0,3.0,99,0.00,,,0.00,meteohub,2013-05-07 13:37:00,
2013-05-07 03:42:00,63.5,63.1,29.14,NE,45,0.0,2.0,99,0.00,,,0.00,meteohub,2013-05-07 13:42:00,
2013-05-07 03:47:00,63.5,63.1,29.14,NE,45,0.0,2.0,99,0.00,,,0.00,meteohub,2013-05-07 13:47:00,
2013-05-07 03:52:00,63.5,63.1,29.14,NE,45,0.0,2.0,99,0.00,,,0.00,meteohub,2013-05-07 13:52:00,
2013-05-07 03:57:00,63.3,63.0,29.14,NE,45,2.0,2.0,99,0.00,,,0.00,meteohub,2013-05-07 13:57:00,
2013-05-07 04:02:00,63.1,62.8,29.15,East,90,0.0,2.0,99,0.00,,,0.00,meteohub,2013-05-07 14:02:00,
2013-05-07 04:07:00,63.1,62.8,29.14,NE,45,0.0,2.0,99,0.00,,,0.00,meteohub,2013-05-07 14:07:00,
2013-05-07 04:12:00,63.0,62.6,29.15,NE,45,0.0,2.0,99,0.00,,,0.00,meteohub,2013-05-07 14:12:00,
2013-05-07 04:17:00,63.0,62.6,29.15,NE,45,0.0,0.0,99,0.00,,,0.00,meteohub,2013-05-07 14:17:00,
2013-05-07 04:22:00,62.8,62.4,29.15,NE,45,0.0,0.0,99,0.00,,,0.00,meteohub,2013-05-07 14:22:00,
2013-05-07 04:27:00,62.8,62.4,29.15,NE,45,1.0,0.0,99,0.00,,,0.00,meteohub,2013-05-07 14:27:00,
2013-05-07 04:32:00,62.8,62.4,29.15,NE,45,0.0,2.0,99,0.00,,,0.00,meteohub,2013-05-07 14:32:00,
2013-05-07 04:37:00,62.6,62.2,29.15,NE,45,0.0,2.0,99,0.00,,,0.00,meteohub,2013-05-07 14:37:00,
2013-05-07 04:42:00,62.6,62.2,29.16,NE,45,0.0,2.0,99,0.00,,,0.00,meteohub,2013-05-07 14:42:00,
2013-05-07 04:47:00,62.4,62.1,29.16,NE,45,0.0,2.0,99,0.00,,,0.00,meteohub,2013-05-07 14:47:00,
2013-05-07 04:52:00,62.2,61.9,29.16,NE,45,0.0,0.0,99,0.00,,,0.00,meteohub,2013-05-07 14:52:00,
2013-05-07 04:57:00,62.2,61.9,29.15,NE,45,0.0,0.0,99,0.00,,,0.00,meteohub,2013-05-07 14:57:00,
2013-05-07 05:02:00,62.2,61.9,29.16,NE,45,0.0,0.0,99,0.00,,,0.00,meteohub,2013-05-07 15:02:00,
2013-05-07 05:07:00,62.2,61.9,29.16,NE,45,0.0,0.0,99,0.00,,,0.00,meteohub,2013-05-07 15:07:00,
2013-05-07 05:12:00,62.2,61.9,29.16,NE,45,0.0,0.0,99,0.00,,,0.00,meteohub,2013-05-07 15:12:00,
2013-05-07 05:17:00,62.1,61.7,29.16,NE,45,0.0,0.0,99,0.00,,,0.00,meteohub,2013-05-07 15:17:00,
2013-05-07 05:22:00,61.9,61.5,29.16,NE,45,0.0,0.0,99,0.00,,,0.00,meteohub,2013-05-07 15:22:00,
2013-05-07 05:27:00,61.7,61.3,29.16,NE,45,0.0,0.0,99,0.00,,,0.00,meteohub,2013-05-07 15:27:00,
2013-05-07 05:32:00,61.5,61.2,29.17,NE,45,0.0,0.0,99,0.00,,,0.00,meteohub,2013-05-07 15:32:00,
2013-05-07 05:37:00,61.3,61.0,29.17,NE,45,0.0,0.0,99,0.00,,,0.00,meteohub,2013-05-07 15:37:00,
2013-05-07 05:42:00,61.3,61.0,29.17,NE,45,0.0,0.0,99,0.00,,,0.00,meteohub,2013-05-07 15:42:00,
2013-05-07 05:47:00,61.3,61.0,29.17,NE,45,1.0,0.0,99,0.00,,,0.00,meteohub,2013-05-07 15:47:00,
2013-05-07 05:52:00,61.3,61.0,29.17,NE,45,2.0,2.0,99,0.00,,,0.00,meteohub,2013-05-07 15:52:00,
2013-05-07 05:57:00,61.7,61.3,29.17,NE,45,2.0,2.0,99,0.00,,,0.00,meteohub,2013-05-07 15:57:00,
2013-05-07 06:02:00,61.9,61.5,29.17,NE,45,2.0,2.0,99,0.00,,,0.00,meteohub,2013-05-07 16:02:00,
2013-05-07 06:07:00,62.2,61.9,29.17,NE,45,2.0,3.0,99,0.00,,,0.00,meteohub,2013-05-07 16:07:00,
2013-05-07 06:12:00,62.2,61.9,29.17,NE,45,0.0,3.0,99,0.00,,,0.00,meteohub,2013-05-07 16:12:00,
2013-05-07 06:17:00,62.6,62.2,29.18,NE,45,2.0,2.0,99,0.00,,,0.00,meteohub,2013-05-07 16:17:00,
2013-05-07 06:22:00,62.8,62.4,29.18,NE,45,2.0,3.0,99,0.00,,,0.00,meteohub,2013-05-07 16:22:00,
2013-05-07 06:27:00,63.0,62.6,29.18,NE,45,0.0,3.0,99,0.00,,,0.00,meteohub,2013-05-07 16:27:00,
2013-05-07 06:32:00,63.0,62.6,29.18,NE,45,0.0,3.0,99,0.00,,,0.00,meteohub,2013-05-07 16:32:00,
2013-05-07 06:37:00,63.0,62.6,29.18,NE,45,1.0,2.0,99,0.00,,,0.00,meteohub,2013-05-07 16:37:00,
2013-05-07 06:42:00,63.0,62.6,29.18,NE,45,0.0,1.0,99,0.00,,,0.00,meteohub,2013-05-07 16:42:00,
2013-05-07 06:47:00,63.0,62.6,29.19,NE,45,1.0,1.0,99,0.00,,,0.00,meteohub,2013-05-07 16:47:00,
2013-05-07 06:52:00,63.3,63.0,29.19,NE,45,1.0,2.0,99,0.00,,,0.00,meteohub,2013-05-07 16:52:00,
2013-05-07 06:57:00,63.7,63.3,29.20,NE,45,0.0,2.0,99,0.00,,,0.00,meteohub,2013-05-07 16:57:00,
2013-05-07 07:02:00,64.8,64.4,29.20,NE,45,0.0,2.0,99,0.00,,,0.00,meteohub,2013-05-07 17:02:00,
2013-05-07 07:07:00,66.0,65.7,29.20,NE,45,0.0,1.0,99,0.00,,,0.00,meteohub,2013-05-07 17:07:00,
2013-05-07 07:12:00,66.6,66.2,29.20,NE,45,0.0,1.0,99,0.00,,,0.00,meteohub,2013-05-07 17:12:00,
2013-05-07 07:17:00,67.5,67.1,29.20,NE,45,0.0,0.0,99,0.00,,,0.00,meteohub,2013-05-07 17:17:00,
2013-05-07 07:22:00,68.4,68.0,29.21,NE,45,0.0,0.0,99,0.00,,,0.00,meteohub,2013-05-07 17:22:00,
2013-05-07 07:27:00,69.1,68.7,29.20,NE,45,0.0,2.0,99,0.00,,,0.00,meteohub,2013-05-07 17:27:00,
2013-05-07 07:32:00,69.4,69.1,29.20,NE,45,0.0,2.0,99,0.00,,,0.00,meteohub,2013-05-07 17:32:00,
2013-05-07 07:37:00,70.2,69.8,29.20,NE,45,0.0,1.0,99,0.00,,,0.00,meteohub,2013-05-07 17:37:00,
2013-05-07 07:42:00,71.2,70.9,29.21,NE,45,0.0,0.0,99,0.00,,,0.00,meteohub,2013-05-07 17:42:00,
2013-05-07 07:47:00,71.6,68.9,29.20,NE,45,0.0,0.0,91,0.00,,,0.00,meteohub,2013-05-07 17:47:00,
2013-05-07 07:52:00,72.0,68.5,29.21,NE,45,0.0,0.0,89,0.00,,,0.00,meteohub,2013-05-07 17:52:00,
2013-05-07 07:57:00,72.3,68.5,29.20,NE,45,0.0,0.0,88,0.00,,,0.00,meteohub,2013-05-07 17:57:00,
2013-05-07 08:02:00,72.7,68.9,29.21,NE,45,0.0,0.0,88,0.00,,,0.00,meteohub,2013-05-07 18:02:00,
2013-05-07 08:07:00,73.2,68.2,29.21,NE,45,0.0,0.0,84,0.00,,,0.00,meteohub,2013-05-07 18:07:00,
2013-05-07 08:12:00,73.8,68.4,29.21,NE,45,0.0,0.0,83,0.00,,,0.00,meteohub,2013-05-07 18:12:00,
2013-05-07 08:17:00,74.5,68.2,29.21,West,270,2.0,2.0,81,0.00,,,0.00,meteohub,2013-05-07 18:17:00,
2013-05-07 08:22:00,74.5,67.5,29.20,West,270,2.0,2.0,79,0.00,,,0.00,meteohub,2013-05-07 18:22:00,
2013-05-07 08:27:00,75.2,68.5,29.21,South,180,0.0,2.0,80,0.00,,,0.00,meteohub,2013-05-07 18:27:00,
2013-05-07 08:32:00,75.9,68.5,29.21,NW,315,1.0,2.0,78,0.00,,,0.00,meteohub,2013-05-07 18:32:00,
2013-05-07 08:37:00,76.1,67.6,29.21,West,270,2.0,3.0,75,0.00,,,0.00,meteohub,2013-05-07 18:37:00,
2013-05-07 08:42:00,77.2,68.7,29.21,South,180,2.0,3.0,75,0.00,,,0.00,meteohub,2013-05-07 18:42:00,
2013-05-07 08:47:00,77.5,68.2,29.20,NW,315,3.0,3.0,73,0.00,,,0.00,meteohub,2013-05-07 18:47:00,
2013-05-07 08:52:00,77.4,68.0,29.20,West,270,3.0,3.0,73,0.00,,,0.00,meteohub,2013-05-07 18:52:00,
2013-05-07 08:57:00,78.1,69.1,29.21,South,180,2.0,3.0,74,0.00,,,0.00,meteohub,2013-05-07 18:57:00,
2013-05-07 09:02:00,78.4,69.1,29.21,West,270,2.0,3.0,73,0.00,,,0.00,meteohub,2013-05-07 19:02:00,
2013-05-07 09:07:00,78.1,68.4,29.20,NE,45,2.0,4.0,72,0.00,,,0.00,meteohub,2013-05-07 19:07:00,
2013-05-07 09:12:00,78.8,69.4,29.20,West,270,4.0,4.0,73,0.00,,,0.00,meteohub,2013-05-07 19:12:00,
2013-05-07 09:17:00,77.9,68.2,29.21,NW,315,2.0,4.0,72,0.00,,,0.00,meteohub,2013-05-07 19:17:00,
2013-05-07 09:22:00,78.1,69.4,29.21,West,270,2.0,4.0,75,0.00,,,0.00,meteohub,2013-05-07 19:22:00,
2013-05-07 09:27:00,78.1,70.0,29.21,SW,225,1.0,4.0,76,0.00,,,0.00,meteohub,2013-05-07 19:27:00,
2013-05-07 09:32:00,78.4,69.4,29.21,West,270,1.0,4.0,74,0.00,,,0.00,meteohub,2013-05-07 19:32:00,
2013-05-07 09:37:00,78.8,69.8,29.21,West,270,4.0,4.0,74,0.00,,,0.00,meteohub,2013-05-07 19:37:00,
2013-05-07 09:42:00,78.4,69.4,29.21,North,0,3.0,5.0,74,0.00,,,0.00,meteohub,2013-05-07 19:42:00,
2013-05-07 09:47:00,77.9,68.5,29.21,West,270,6.0,6.0,73,0.00,,,0.00,meteohub,2013-05-07 19:47:00,
2013-05-07 09:52:00,78.3,69.3,29.21,West,270,4.0,6.0,74,0.00,,,0.00,meteohub,2013-05-07 19:52:00,
2013-05-07 09:57:00,78.6,69.3,29.20,NW,315,3.0,6.0,73,0.00,,,0.00,meteohub,2013-05-07 19:57:00,
2013-05-07 10:02:00,78.6,68.9,29.21,West,270,6.0,6.0,72,0.00,,,0.00,meteohub,2013-05-07 20:02:00,
2013-05-07 10:07:00,78.8,69.8,29.21,West,270,2.0,6.0,74,0.00,,,0.00,meteohub,2013-05-07 20:07:00,
2013-05-07 10:12:00,79.9,70.0,29.20,South,180,2.0,6.0,72,0.00,,,0.00,meteohub,2013-05-07 20:12:00,
2013-05-07 10:17:00,80.6,70.0,29.20,West,270,5.0,6.0,70,0.00,,,0.00,meteohub,2013-05-07 20:17:00,
2013-05-07 10:22:00,79.2,68.5,29.20,West,270,5.0,5.0,70,0.00,,,0.00,meteohub,2013-05-07 20:22:00,
2013-05-07 10:27:00,78.8,68.2,29.20,NW,315,4.0,7.0,70,0.00,,,0.00,meteohub,2013-05-07 20:27:00,
2013-05-07 10:32:00,78.8,68.5,29.19,West,270,4.0,7.0,71,0.00,,,0.00,meteohub,2013-05-07 20:32:00,
2013-05-07 10:37:00,79.0,68.4,29.19,NE,45,1.0,5.0,70,0.00,,,0.00,meteohub,2013-05-07 20:37:00,
2013-05-07 10:42:00,80.8,70.2,29.19,SW,225,2.0,6.0,70,0.00,,,0.00,meteohub,2013-05-07 20:42:00,
2013-05-07 10:47:00,81.0,68.9,29.19,NW,315,7.0,7.0,67,0.00,,,0.00,meteohub,2013-05-07 20:47:00,
2013-05-07 10:52:00,80.4,68.9,29.19,NW,315,3.0,7.0,68,0.00,,,0.00,meteohub,2013-05-07 20:52:00,
2013-05-07 10:57:00,81.0,69.4,29.18,South,180,4.0,7.0,68,0.00,,,0.00,meteohub,2013-05-07 20:57:00,
2013-05-07 11:02:00,81.5,70.0,29.18,West,270,2.0,7.0,68,0.00,,,0.00,meteohub,2013-05-07 21:02:00,
2013-05-07 11:07:00,81.1,68.7,29.18,NW,315,5.0,8.0,66,0.00,,,0.00,meteohub,2013-05-07 21:07:00,
2013-05-07 11:12:00,80.8,69.3,29.18,SW,225,2.0,8.0,68,0.00,,,0.00,meteohub,2013-05-07 21:12:00,
2013-05-07 11:17:00,81.9,70.7,29.18,South,180,2.0,8.0,69,0.00,,,0.00,meteohub,2013-05-07 21:17:00,
2013-05-07 11:22:00,82.2,69.8,29.18,South,180,1.0,5.0,66,0.00,,,0.00,meteohub,2013-05-07 21:22:00,
2013-05-07 11:27:00,81.7,69.3,29.17,South,180,2.0,6.0,66,0.00,,,0.00,meteohub,2013-05-07 21:27:00,
2013-05-07 11:32:00,81.5,69.1,29.17,NW,315,4.0,6.0,66,0.00,,,0.00,meteohub,2013-05-07 21:32:00,
2013-05-07 11:37:00,81.7,68.7,29.17,South,180,2.0,6.0,65,0.00,,,0.00,meteohub,2013-05-07 21:37:00,
2013-05-07 11:42:00,81.1,69.1,29.17,West,270,5.0,7.0,67,0.00,,,0.00,meteohub,2013-05-07 21:42:00,
2013-05-07 11:47:00,81.7,69.6,29.16,NE,45,2.0,7.0,67,0.00,,,0.00,meteohub,2013-05-07 21:47:00,
2013-05-07 11:52:00,82.0,69.1,29.16,North,0,3.0,7.0,65,0.00,,,0.00,meteohub,2013-05-07 21:52:00,
2013-05-07 11:57:00,82.2,69.3,29.16,West,270,4.0,5.0,65,0.00,,,0.00,meteohub,2013-05-07 21:57:00,
2013-05-07 12:02:00,82.2,68.9,29.16,NW,315,2.0,4.0,64,0.00,,,0.00,meteohub,2013-05-07 22:02:00,
2013-05-07 12:07:00,82.0,68.7,29.15,South,180,2.0,4.0,64,0.00,,,0.00,meteohub,2013-05-07 22:07:00,
2013-05-07 12:12:00,81.7,68.7,29.16,North,0,2.0,4.0,65,0.00,,,0.00,meteohub,2013-05-07 22:12:00,
2013-05-07 12:17:00,81.9,67.6,29.16,West,270,6.0,6.0,62,0.00,,,0.00,meteohub,2013-05-07 22:17:00,
2013-05-07 12:22:00,82.0,69.1,29.15,NW,315,4.0,6.0,65,0.00,,,0.00,meteohub,2013-05-07 22:22:00,
2013-05-07 12:27:00,82.4,69.1,29.16,SW,225,2.0,6.0,64,0.00,,,0.00,meteohub,2013-05-07 22:27:00,
2013-05-07 12:32:00,81.3,66.6,29.15,SW,225,3.0,7.0,61,0.00,,,0.00,meteohub,2013-05-07 22:32:00,
2013-05-07 12:37:00,81.5,67.6,29.15,South,180,4.0,7.0,63,0.00,,,0.00,meteohub,2013-05-07 22:37:00,
2013-05-07 12:42:00,81.5,68.2,29.14,NE,45,3.0,7.0,64,0.00,,,0.00,meteohub,2013-05-07 22:42:00,
2013-05-07 12:47:00,82.0,68.7,29.15,East,90,2.0,5.0,64,0.00,,,0.00,meteohub,2013-05-07 22:47:00,
2013-05-07 12:52:00,82.0,69.1,29.14,SW,225,2.0,7.0,65,0.00,,,0.00,meteohub,2013-05-07 22:52:00,
2013-05-07 12:57:00,82.9,68.5,29.14,SW,225,2.0,7.0,62,0.00,,,0.00,meteohub,2013-05-07 22:57:00,
2013-05-07 13:02:00,83.5,67.6,29.14,North,0,4.0,4.0,59,0.00,,,0.00,meteohub,2013-05-07 23:02:00,
2013-05-07 13:07:00,83.1,66.7,29.14,SE,135,4.0,5.0,58,0.00,,,0.00,meteohub,2013-05-07 23:07:00,
2013-05-07 13:12:00,82.4,66.2,29.14,West,270,5.0,5.0,58,0.00,,,0.00,meteohub,2013-05-07 23:12:00,
2013-05-07 13:17:00,82.6,66.7,29.13,West,270,3.0,8.0,59,0.00,,,0.00,meteohub,2013-05-07 23:17:00,
2013-05-07 13:22:00,82.6,66.7,29.13,SE,135,3.0,8.0,59,0.00,,,0.00,meteohub,2013-05-07 23:22:00,
2013-05-07 13:27:00,82.9,66.6,29.13,NW,315,7.0,7.0,58,0.00,,,0.00,meteohub,2013-05-07 23:27:00,
2013-05-07 13:32:00,83.3,68.4,29.13,East,90,2.0,8.0,61,0.00,,,0.00,meteohub,2013-05-07 23:32:00,
2013-05-07 13:37:00,83.7,66.7,29.13,West,270,2.0,8.0,57,0.00,,,0.00,meteohub,2013-05-07 23:37:00,
2013-05-07 13:42:00,83.1,66.4,29.13,West,270,3.0,8.0,57,0.00,,,0.00,meteohub,2013-05-07 23:42:00,
2013-05-07 13:47:00,82.8,66.6,29.12,South,180,5.0,7.0,58,0.00,,,0.00,meteohub,2013-05-07 23:47:00,
2013-05-07 13:52:00,83.7,67.8,29.13,SW,225,4.0,7.0,59,0.00,,,0.00,meteohub,2013-05-07 23:52:00,
2013-05-07 13:57:00,84.6,67.6,29.13,West,270,3.0,7.0,57,0.00,,,0.00,meteohub,2013-05-07 23:57:00,
2013-05-07 14:02:00,84.4,67.5,29.13,South,180,5.0,7.0,57,0.00,,,0.00,meteohub,2013-05-08 00:02:00,
2013-05-07 14:07:00,84.2,67.3,29.13,NW,315,3.0,7.0,57,0.00,,,0.00,meteohub,2013-05-08 00:07:00,
2013-05-07 14:12:00,83.5,67.1,29.12,West,270,2.0,7.0,58,0.00,,,0.00,meteohub,2013-05-08 00:12:00,
2013-05-07 14:17:00,83.1,67.8,29.12,South,180,3.0,6.0,60,0.00,,,0.00,meteohub,2013-05-08 00:17:00,
2013-05-07 14:22:00,82.8,66.9,29.13,SE,135,5.0,6.0,59,0.00,,,0.00,meteohub,2013-05-08 00:22:00,
2013-05-07 14:27:00,82.2,67.5,29.13,South,180,3.0,6.0,61,0.00,,,0.00,meteohub,2013-05-08 00:27:00,
2013-05-07 14:32:00,81.7,66.4,29.12,SE,135,4.0,6.0,60,0.00,,,0.00,meteohub,2013-05-08 00:32:00,
2013-05-07 14:36:00,82.0,66.7,29.12,SE,135,4.0,5.0,60,0.00,,,0.00,meteohub,2013-05-08 00:36:00,
2013-05-07 14:42:00,82.8,67.5,29.12,SE,135,5.0,5.0,60,0.00,,,0.00,meteohub,2013-05-08 00:42:00,
2013-05-07 14:47:00,82.9,68.2,29.12,West,270,3.0,5.0,61,0.00,,,0.00,meteohub,2013-05-08 00:47:00,
2013-05-07 14:52:00,81.9,67.1,29.12,South,180,4.0,5.0,61,0.00,,,0.00,meteohub,2013-05-08 00:52:00,
2013-05-07 14:57:00,81.9,68.0,29.12,SE,135,5.0,5.0,63,0.00,,,0.00,meteohub,2013-05-08 00:57:00,
2013-05-07 15:02:00,81.5,68.5,29.12,East,90,2.0,5.0,65,0.00,,,0.00,meteohub,2013-05-08 01:02:00,
2013-05-07 15:07:00,81.5,69.1,29.12,SE,135,3.0,5.0,66,0.00,,,0.00,meteohub,2013-05-08 01:07:00,
2013-05-07 15:12:00,81.7,68.7,29.12,South,180,3.0,5.0,65,0.00,,,0.00,meteohub,2013-05-08 01:12:00,
2013-05-07 15:17:00,81.7,68.7,29.12,West,270,4.0,4.0,65,0.00,,,0.00,meteohub,2013-05-08 01:17:00,
2013-05-07 15:22:00,80.6,67.8,29.11,NW,315,2.0,4.0,65,0.00,,,0.00,meteohub,2013-05-08 01:22:00,
2013-05-07 15:27:00,80.8,68.0,29.11,West,270,2.0,4.0,65,0.00,,,0.00,meteohub,2013-05-08 01:27:00,
2013-05-07 15:32:00,82.9,68.5,29.11,West,270,4.0,4.0,62,0.00,,,0.00,meteohub,2013-05-08 01:32:00,
2013-05-07 15:37:00,82.6,68.2,29.11,SW,225,4.0,5.0,62,0.00,,,0.00,meteohub,2013-05-08 01:37:00,
2013-05-07 15:42:00,82.4,68.0,29.10,South,180,2.0,5.0,62,0.00,,,0.00,meteohub,2013-05-08 01:42:00,
2013-05-07 15:47:00,82.4,68.0,29.10,South,180,2.0,7.0,62,0.00,,,0.00,meteohub,2013-05-08 01:47:00,
2013-05-07 15:52:00,82.0,67.3,29.10,NW,315,4.0,7.0,61,0.00,,,0.00,meteohub,2013-05-08 01:52:00,
2013-05-07 15:57:00,80.6,66.9,29.11,SW,225,4.0,6.0,63,0.00,,,0.00,meteohub,2013-05-08 01:57:00,
2013-05-07 16:02:00,79.7,66.9,29.10,NW,315,4.0,7.0,65,0.00,,,0.00,meteohub,2013-05-08 02:02:00,
2013-05-07 16:07:00,79.5,67.1,29.11,West,270,4.0,7.0,66,0.00,,,0.00,meteohub,2013-05-08 02:07:00,
2013-05-07 16:12:00,81.0,68.5,29.10,West,270,2.0,6.0,66,0.00,,,0.00,meteohub,2013-05-08 02:12:00,
2013-05-07 16:17:00,82.0,67.6,29.10,SW,225,2.0,6.0,62,0.00,,,0.00,meteohub,2013-05-08 02:17:00,
2013-05-07 16:22:00,81.7,66.4,29.10,NW,315,4.0,6.0,60,0.00,,,0.00,meteohub,2013-05-08 02:22:00,
2013-05-07 16:27:00,81.7,67.5,29.10,West,270,4.0,5.0,62,0.00,,,0.00,meteohub,2013-05-08 02:27:00,
2013-05-07 16:32:00,81.5,66.2,29.10,NW,315,4.0,5.0,60,0.00,,,0.00,meteohub,2013-05-08 02:32:00,
2013-05-07 16:37:00,81.9,67.1,29.10,West,270,5.0,6.0,61,0.00,,,0.00,meteohub,2013-05-08 02:37:00,
2013-05-07 16:42:00,81.9,67.1,29.10,SW,225,4.0,6.0,61,0.00,,,0.00,meteohub,2013-05-08 02:42:00,
2013-05-07 16:47:00,81.9,67.1,29.10,NW,315,3.0,8.0,61,0.00,,,0.00,meteohub,2013-05-08 02:47:00,
2013-05-07 16:52:00,81.7,66.4,29.10,West,270,4.0,8.0,60,0.00,,,0.00,meteohub,2013-05-08 02:52:00,
2013-05-07 16:57:00,81.3,66.6,29.10,NW,315,7.0,7.0,61,0.00,,,0.00,meteohub,2013-05-08 02:57:00,
2013-05-07 17:02:00,81.7,66.9,29.10,SW,225,5.0,7.0,61,0.00,,,0.00,meteohub,2013-05-08 03:02:00,
2013-05-07 17:07:00,81.3,66.0,29.10,West,270,4.0,7.0,60,0.00,,,0.00,meteohub,2013-05-08 03:07:00,
2013-05-07 17:12:00,81.3,67.1,29.10,NW,315,3.0,7.0,62,0.00,,,0.00,meteohub,2013-05-08 03:12:00,
2013-05-07 17:17:00,81.3,66.0,29.10,NW,315,5.0,7.0,60,0.00,,,0.00,meteohub,2013-05-08 03:17:00,
2013-05-07 17:22:00,81.5,66.2,29.10,SW,225,2.0,7.0,60,0.00,,,0.00,meteohub,2013-05-08 03:22:00,
2013-05-07 17:27:00,81.0,65.8,29.11,SW,225,2.0,5.0,60,0.00,,,0.00,meteohub,2013-05-08 03:27:00,
2013-05-07 17:32:00,79.5,65.8,29.11,NW,315,3.0,5.0,63,0.00,,,0.00,meteohub,2013-05-08 03:32:00,
2013-05-07 17:37:00,78.8,66.6,29.11,West,270,4.0,5.0,66,0.00,,,0.00,meteohub,2013-05-08 03:37:00,
2013-05-07 17:42:00,77.7,66.7,29.11,NW,315,2.0,5.0,69,0.00,,,0.00,meteohub,2013-05-08 03:42:00,
2013-05-07 17:47:00,77.5,66.9,29.11,West,270,2.0,5.0,70,0.00,,,0.00,meteohub,2013-05-08 03:47:00,
2013-05-07 17:52:00,77.7,67.1,29.11,NW,315,2.0,5.0,70,0.00,,,0.00,meteohub,2013-05-08 03:52:00,
2013-05-07 17:57:00,77.2,67.8,29.12,West,270,3.0,4.0,73,0.00,,,0.00,meteohub,2013-05-08 03:57:00,
2013-05-07 18:01:00,76.8,67.8,29.12,West,270,4.0,4.0,74,0.00,,,0.00,meteohub,2013-05-08 04:01:00,
2013-05-07 18:06:00,76.3,67.5,29.12,NE,45,2.0,4.0,74,0.00,,,0.00,meteohub,2013-05-08 04:06:00,
2013-05-07 18:11:00,76.3,67.8,29.12,West,270,4.0,4.0,75,0.00,,,0.00,meteohub,2013-05-08 04:11:00,
2013-05-07 18:16:00,75.7,67.6,29.13,NW,315,4.0,4.0,76,0.00,,,0.00,meteohub,2013-05-08 04:16:00,
2013-05-07 18:21:00,75.4,67.6,29.13,West,270,2.0,4.0,77,0.00,,,0.00,meteohub,2013-05-08 04:21:00,
2013-05-07 18:26:00,75.6,67.8,29.13,West,270,4.0,4.0,77,0.00,,,0.00,meteohub,2013-05-08 04:26:00,
2013-05-07 18:31:00,74.8,67.5,29.13,West,270,2.0,4.0,78,0.00,,,0.00,meteohub,2013-05-08 04:31:00,
2013-05-07 18:36:00,74.5,67.5,29.13,NW,315,2.0,4.0,79,0.00,,,0.00,meteohub,2013-05-08 04:36:00,
2013-05-07 18:41:00,74.5,67.5,29.13,NW,315,2.0,4.0,79,0.00,,,0.00,meteohub,2013-05-08 04:41:00,
2013-05-07 18:46:00,73.4,67.6,29.13,North,0,2.0,4.0,82,0.00,,,0.00,meteohub,2013-05-08 04:46:00,
2013-05-07 18:51:00,73.0,67.6,29.14,NW,315,2.0,3.0,83,0.00,,,0.00,meteohub,2013-05-08 04:51:00,
2013-05-07 18:56:00,72.7,67.8,29.14,NW,315,2.0,2.0,85,0.00,,,0.00,meteohub,2013-05-08 04:56:00,
2013-05-07 19:01:00,72.3,68.2,29.14,West,270,2.0,4.0,87,0.00,,,0.00,meteohub,2013-05-08 05:01:00,
2013-05-07 19:06:00,72.1,68.4,29.15,NW,315,3.0,4.0,88,0.00,,,0.00,meteohub,2013-05-08 05:06:00,
2013-05-07 19:11:00,71.8,68.4,29.15,North,0,1.0,4.0,89,0.00,,,0.00,meteohub,2013-05-08 05:11:00,
2013-05-07 19:16:00,71.8,68.4,29.15,North,0,2.0,3.0,89,0.00,,,0.00,meteohub,2013-05-08 05:16:00,
2013-05-07 19:21:00,71.6,68.5,29.15,North,0,1.0,3.0,90,0.00,,,0.00,meteohub,2013-05-08 05:21:00,
2013-05-07 19:26:00,71.4,68.4,29.16,North,0,0.0,2.0,90,0.00,,,0.00,meteohub,2013-05-08 05:26:00,
2013-05-07 19:32:00,71.2,68.2,29.16,North,0,0.0,2.0,90,0.00,,,0.00,meteohub,2013-05-08 05:32:00,
2013-05-07 19:37:00,71.1,68.4,29.16,North,0,1.0,2.0,91,0.00,,,0.00,meteohub,2013-05-08 05:37:00,
2013-05-07 19:42:00,71.1,68.4,29.16,North,0,1.0,2.0,91,0.00,,,0.00,meteohub,2013-05-08 05:42:00,
2013-05-07 19:47:00,70.7,68.0,29.16,North,0,0.0,2.0,91,0.00,,,0.00,meteohub,2013-05-08 05:47:00,
2013-05-07 19:52:00,70.7,68.2,29.16,North,0,1.0,2.0,92,0.00,,,0.00,meteohub,2013-05-08 05:52:00,
2013-05-07 19:57:00,70.5,68.0,29.17,North,0,1.0,2.0,92,0.00,,,0.00,meteohub,2013-05-08 05:57:00,
2013-05-07 20:02:00,70.5,68.0,29.17,North,0,0.0,1.0,92,0.00,,,0.00,meteohub,2013-05-08 06:02:00,
2013-05-07 20:07:00,70.5,68.0,29.17,North,0,0.0,1.0,92,0.00,,,0.00,meteohub,2013-05-08 06:07:00,
2013-05-07 20:12:00,70.3,68.2,29.17,NE,45,1.0,2.0,93,0.00,,,0.00,meteohub,2013-05-08 06:12:00,
2013-05-07 20:17:00,70.3,68.2,29.17,NE,45,0.0,2.0,93,0.00,,,0.00,meteohub,2013-05-08 06:17:00,
2013-05-07 20:22:00,70.3,68.2,29.18,NE,45,0.0,2.0,93,0.00,,,0.00,meteohub,2013-05-08 06:22:00,
2013-05-07 20:27:00,70.2,68.0,29.18,NE,45,0.0,1.0,93,0.00,,,0.00,meteohub,2013-05-08 06:27:00,
2013-05-07 20:32:00,70.0,67.8,29.17,NE,45,0.0,0.0,93,0.00,,,0.00,meteohub,2013-05-08 06:32:00,
2013-05-07 20:37:00,69.8,68.0,29.18,East,90,2.0,2.0,94,0.00,,,0.00,meteohub,2013-05-08 06:37:00,
2013-05-07 20:42:00,69.8,68.4,29.18,East,90,2.0,3.0,95,0.00,,,0.00,meteohub,2013-05-08 06:42:00,
2013-05-07 20:47:00,69.8,68.4,29.18,East,90,0.0,3.0,95,0.00,,,0.00,meteohub,2013-05-08 06:47:00,
2013-05-07 20:52:00,69.8,68.4,29.18,East,90,0.0,3.0,95,0.00,,,0.00,meteohub,2013-05-08 06:52:00,
2013-05-07 20:57:00,69.6,68.2,29.18,East,90,0.0,2.0,95,0.00,,,0.00,meteohub,2013-05-08 06:57:00,
2013-05-07 21:02:00,69.6,68.4,29.19,East,90,0.0,2.0,96,0.00,,,0.00,meteohub,2013-05-08 07:02:00,
2013-05-07 21:07:00,69.4,68.2,29.19,NE,45,1.0,0.0,96,0.00,,,0.00,meteohub,2013-05-08 07:07:00,
2013-05-07 21:12:00,69.3,68.4,29.19,NE,45,1.0,2.0,97,0.00,,,0.00,meteohub,2013-05-08 07:12:00,
2013-05-07 21:17:00,69.1,68.2,29.19,NE,45,0.0,2.0,97,0.00,,,0.00,meteohub,2013-05-08 07:17:00,
2013-05-07 21:22:00,68.9,68.0,29.19,NE,45,2.0,2.0,97,0.00,,,0.00,meteohub,2013-05-08 07:22:00,
2013-05-07 21:27:00,68.7,68.2,29.19,NE,45,1.0,2.0,98,0.00,,,0.00,meteohub,2013-05-08 07:27:00,
2013-05-07 21:32:00,68.5,68.0,29.20,NE,45,1.0,2.0,98,0.00,,,0.00,meteohub,2013-05-08 07:32:00,
2013-05-07 21:37:00,68.4,68.0,29.20,NE,45,2.0,2.0,99,0.00,,,0.00,meteohub,2013-05-08 07:37:00,
2013-05-07 21:42:00,68.2,67.8,29.20,NE,45,0.0,2.0,99,0.00,,,0.00,meteohub,2013-05-08 07:42:00,
2013-05-07 21:47:00,68.0,67.6,29.20,NE,45,0.0,2.0,99,0.00,,,0.00,meteohub,2013-05-08 07:47:00,
2013-05-07 21:52:00,67.8,67.5,29.20,NE,45,0.0,2.0,99,0.00,,,0.00,meteohub,2013-05-08 07:52:00,
2013-05-07 21:57:00,67.6,67.3,29.20,NE,45,0.0,2.0,99,0.00,,,0.00,meteohub,2013-05-08 07:57:00,
2013-05-07 22:02:00,67.3,66.9,29.21,NE,45,0.0,2.0,99,0.00,,,0.00,meteohub,2013-05-08 08:02:00,
2013-05-07 22:07:00,67.1,66.7,29.21,NE,45,0.0,0.0,99,0.00,,,0.00,meteohub,2013-05-08 08:07:00,
2013-05-07 22:12:00,66.9,66.6,29.21,NE,45,1.0,0.0,99,0.00,,,0.00,meteohub,2013-05-08 08:12:00,
2013-05-07 22:17:00,66.7,66.4,29.21,NE,45,1.0,1.0,99,0.00,,,0.00,meteohub,2013-05-08 08:17:00,
2013-05-07 22:22:00,66.6,66.2,29.21,NE,45,0.0,1.0,99,0.00,,,0.00,meteohub,2013-05-08 08:22:00,
2013-05-07 22:27:00,66.4,66.0,29.21,NE,45,0.0,2.0,99,0.00,,,0.00,meteohub,2013-05-08 08:27:00,
2013-05-07 22:32:00,66.2,65.8,29.21,NE,45,2.0,2.0,99,0.00,,,0.00,meteohub,2013-05-08 08:32:00,
2013-05-07 22:37:00,66.2,65.8,29.21,NE,45,1.0,2.0,99,0.00,,,0.00,meteohub,2013-05-08 08:37:00,
2013-05-07 22:42:00,66.2,65.8,29.21,East,90,2.0,2.0,99,0.00,,,0.00,meteohub,2013-05-08 08:42:00,
2013-05-07 22:47:00,66.4,66.0,29.21,East,90,2.0,2.0,99,0.00,,,0.00,meteohub,2013-05-08 08:47:00,
2013-05-07 22:52:00,66.4,66.0,29.21,NE,45,2.0,2.0,99,0.00,,,0.00,meteohub,2013-05-08 08:52:00,
2013-05-07 22:57:00,66.2,65.8,29.21,NE,45,2.0,2.0,99,0.00,,,0.00,meteohub,2013-05-08 08:57:00,
2013-05-07 23:02:00,66.0,65.7,29.21,NE,45,1.0,2.0,99,0.00,,,0.00,meteohub,2013-05-08 09:02:00,
2013-05-07 23:07:00,65.8,65.5,29.21,NE,45,2.0,2.0,99,0.00,,,0.00,meteohub,2013-05-08 09:07:00,
2013-05-07 23:12:00,65.7,65.3,29.21,NE,45,2.0,2.0,99,0.00,,,0.00,meteohub,2013-05-08 09:12:00,
2013-05-07 23:17:00,65.7,65.3,29.21,NE,45,1.0,2.0,99,0.00,,,0.00,meteohub,2013-05-08 09:17:00,
2013-05-07 23:22:00,65.7,65.3,29.21,NE,45,2.0,2.0,99,0.00,,,0.00,meteohub,2013-05-08 09:22:00,
2013-05-07 23:27:00,65.8,65.5,29.21,NE,45,1.0,2.0,99,0.00,,,0.00,meteohub,2013-05-08 09:27:00,
2013-05-07 23:32:00,65.8,65.5,29.21,NE,45,2.0,2.0,99,0.00,,,0.00,meteohub,2013-05-08 09:32:00,
2013-05-07 23:37:00,66.0,65.7,29.21,NE,45,2.0,2.0,99,0.00,,,0.00,meteohub,2013-05-08 09:37:00,
2013-05-07 23:42:00,66.0,65.7,29.20,NE,45,2.0,2.0,99,0.00,,,0.00,meteohub,2013-05-08 09:42:00,
2013-05-07 23:47:00,66.2,65.7,29.21,NE,45,1.0,2.0,98,0.00,,,0.00,meteohub,2013-05-08 09:47:00,
2013-05-07 23:52:00,66.2,64.9,29.20,NE,45,2.0,2.0,96,0.00,,,0.00,meteohub,2013-05-08 09:52:00,
2013-05-07 23:57:00,66.4,64.6,29.20,NE,45,2.0,2.0,94,0.00,,,0.00,meteohub,2013-05-08 09:57:00,